MKJP

Norman Manley International Airport

Kingston, Jamaica
TAF MKJP 182315Z 1900/1924 35005KT 9999 FEW022 SCT032 BECMG 1914/1916 15010KT
Issued Valid From Valid To
Jan-18 @ 23:15 UTC
(4 hours ago)
Jan-19 @ 00:00 UTC
(3 hours ago)
Jan-20 @ 00:00 UTC
(in 21 hours)
Jan-19 @ 00:00 to Jan-19 @ 14:00
TAF MKJP 182315Z 1900/1924 35005KT 9999 FEW022 SCT032
Wind Visibility Clouds
350° at 5 knots 10,000+ meters
  • Few at 2,200' AGL
  • Scattered at 3,200' AGL
Becoming Jan-19 @ 14:00 to Jan-20 @ 00:00
BECMG 1914/1916 15010KT
Wind Visibility Clouds
150° at 10 knots 10,000+ meters
  • Few at 2,200' AGL
  • Scattered at 3,200' AGL
TAF MKJP 182315Z 1900/1924 35005KT 9999 FEW022 SCT032 BECMG 1914/1916 15010KT
Issued Jan-18 @ 23:15 UTC
(4 hours ago)
Valid From Jan-19 @ 00:00 UTC
(3 hours ago)
Valid To Jan-20 @ 00:00 UTC
(in 21 hours)
Jan-19 @ 00:00 - Jan-19 @ 14:00
Wind Visibility
350° at 5 knots 10,000+ meters
Clouds
  • Few at 2,200' AGL
  • Scattered at 3,200' AGL
Becoming Jan-19 @ 14:00 - Jan-20 @ 00:00
Wind Visibility
150° at 10 knots 10,000+ meters
Clouds
  • Few at 2,200' AGL
  • Scattered at 3,200' AGL